sensor_id;sensor_type;location;lat;lon;timestamp;pressure;altitude;pressure_sealevel;temperature;humidity
39789;BME280;25478;42.626;23.320;2023-06-22T00:00:53;93607.28;;;18.32;77.72
39789;BME280;25478;42.626;23.320;2023-06-22T00:03:20;93599.75;;;18.27;78.12
39789;BME280;25478;42.626;23.320;2023-06-22T00:05:46;93592.94;;;18.26;78.53
39789;BME280;25478;42.626;23.320;2023-06-22T00:08:12;93592.66;;;18.20;78.45
39789;BME280;25478;42.626;23.320;2023-06-22T00:10:38;93590.06;;;18.17;78.42
39789;BME280;25478;42.626;23.320;2023-06-22T00:13:04;93587.09;;;18.11;78.87
39789;BME280;25478;42.626;23.320;2023-06-22T00:15:30;93592.53;;;18.08;79.17
39789;BME280;25478;42.626;23.320;2023-06-22T00:17:55;93586.91;;;18.02;79.89
39789;BME280;25478;42.626;23.320;2023-06-22T00:20:24;93581.69;;;17.95;80.43
39789;BME280;25478;42.626;23.320;2023-06-22T00:22:54;93573.50;;;17.86;81.02
39789;BME280;25478;42.626;23.320;2023-06-22T00:25:20;93583.38;;;17.85;80.70
39789;BME280;25478;42.626;23.320;2023-06-22T00:27:46;93571.66;;;17.83;81.01
39789;BME280;25478;42.626;23.320;2023-06-22T00:30:12;93568.22;;;17.82;80.94
39789;BME280;25478;42.626;23.320;2023-06-22T00:32:37;93564.03;;;17.81;80.91
39789;BME280;25478;42.626;23.320;2023-06-22T00:35:03;93557.56;;;17.82;80.80
39789;BME280;25478;42.626;23.320;2023-06-22T00:37:29;93557.97;;;17.81;80.91
39789;BME280;25478;42.626;23.320;2023-06-22T00:39:55;93562.88;;;17.82;81.16
39789;BME280;25478;42.626;23.320;2023-06-22T00:42:21;93559.13;;;17.80;81.45
39789;BME280;25478;42.626;23.320;2023-06-22T00:44:46;93565.63;;;17.79;81.98
39789;BME280;25478;42.626;23.320;2023-06-22T00:47:15;93557.69;;;17.75;81.85
39789;BME280;25478;42.626;23.320;2023-06-22T00:49:43;93554.09;;;17.62;82.12
39789;BME280;25478;42.626;23.320;2023-06-22T00:52:08;93566.19;;;17.66;82.61
39789;BME280;25478;42.626;23.320;2023-06-22T00:54:40;93562.00;;;17.65;83.36
39789;BME280;25478;42.626;23.320;2023-06-22T00:57:13;93543.16;;;17.56;83.43
39789;BME280;25478;42.626;23.320;2023-06-22T00:59:50;93564.31;;;17.63;83.63
39789;BME280;25478;42.626;23.320;2023-06-22T01:02:15;93560.56;;;17.61;83.91
39789;BME280;25478;42.626;23.320;2023-06-22T01:04:40;93558.31;;;17.59;83.83
39789;BME280;25478;42.626;23.320;2023-06-22T01:09:51;93534.88;;;17.27;83.79
39789;BME280;25478;42.626;23.320;2023-06-22T01:12:19;93569.41;;;17.54;84.38
39789;BME280;25478;42.626;23.320;2023-06-22T01:15:00;93562.59;;;17.53;84.18
39789;BME280;25478;42.626;23.320;2023-06-22T01:17:28;93572.94;;;17.48;84.77
39789;BME280;25478;42.626;23.320;2023-06-22T01:19:55;93571.16;;;17.41;84.83
39789;BME280;25478;42.626;23.320;2023-06-22T01:22:24;93577.63;;;17.40;84.71
39789;BME280;25478;42.626;23.320;2023-06-22T01:28:17;93576.94;;;17.36;84.91
39789;BME280;25478;42.626;23.320;2023-06-22T01:30:46;93574.69;;;17.34;85.20
39789;BME280;25478;42.626;23.320;2023-06-22T01:33:13;93581.50;;;17.35;85.16
39789;BME280;25478;42.626;23.320;2023-06-22T01:35:41;93563.81;;;17.25;85.30
39789;BME280;25478;42.626;23.320;2023-06-22T01:38:08;93581.91;;;17.34;85.77
39789;BME280;25478;42.626;23.320;2023-06-22T01:40:33;93583.47;;;17.31;86.04
39789;BME280;25478;42.626;23.320;2023-06-22T01:43:01;93581.22;;;17.30;86.20
39789;BME280;25478;42.626;23.320;2023-06-22T01:45:27;93566.34;;;17.09;86.29
39789;BME280;25478;42.626;23.320;2023-06-22T01:47:54;93568.25;;;17.08;86.99
39789;BME280;25478;42.626;23.320;2023-06-22T01:50:20;93589.69;;;17.21;87.31
39789;BME280;25478;42.626;23.320;2023-06-22T01:52:46;93592.44;;;17.17;87.47
39789;BME280;25478;42.626;23.320;2023-06-22T01:55:11;93563.03;;;17.01;87.68
39789;BME280;25478;42.626;23.320;2023-06-22T01:57:37;93590.97;;;17.13;88.11
39789;BME280;25478;42.626;23.320;2023-06-22T02:00:14;93591.38;;;17.11;88.20
39789;BME280;25478;42.626;23.320;2023-06-22T02:02:53;93594.84;;;17.08;88.00
39789;BME280;25478;42.626;23.320;2023-06-22T02:05:20;93595.25;;;17.07;88.77
39789;BME280;25478;42.626;23.320;2023-06-22T02:07:58;93597.13;;;17.06;89.15
39789;BME280;25478;42.626;23.320;2023-06-22T02:10:26;93599.44;;;17.04;89.69
39789;BME280;25478;42.626;23.320;2023-06-22T02:12:54;93596.03;;;17.04;89.77
39789;BME280;25478;42.626;23.320;2023-06-22T02:15:20;93604.81;;;17.01;89.69
39789;BME280;25478;42.626;23.320;2023-06-22T02:17:47;93591.94;;;16.99;89.64
39789;BME280;25478;42.626;23.320;2023-06-22T02:20:14;93581.66;;;16.98;89.74
39789;BME280;25478;42.626;23.320;2023-06-22T02:22:41;93582.44;;;16.98;89.79
39789;BME280;25478;42.626;23.320;2023-06-22T02:25:10;93564.78;;;16.84;90.47
39789;BME280;25478;42.626;23.320;2023-06-22T02:27:35;93584.41;;;16.94;90.51
39789;BME280;25478;42.626;23.320;2023-06-22T02:30:01;93589.31;;;16.96;90.90
39789;BME280;25478;42.626;23.320;2023-06-22T02:32:26;93585.56;;;16.93;91.31
39789;BME280;25478;42.626;23.320;2023-06-22T02:34:52;93580.31;;;16.86;91.74
39789;BME280;25478;42.626;23.320;2023-06-22T02:37:18;93584.06;;;16.92;92.15
39789;BME280;25478;42.626;23.320;2023-06-22T02:39:44;93587.88;;;16.91;92.33
39789;BME280;25478;42.626;23.320;2023-06-22T02:42:09;93581.78;;;16.91;92.50
39789;BME280;25478;42.626;23.320;2023-06-22T02:44:37;93590.91;;;16.89;92.61
39789;BME280;25478;42.626;23.320;2023-06-22T02:47:03;93581.03;;;16.90;93.16
39789;BME280;25478;42.626;23.320;2023-06-22T02:49:29;93586.38;;;16.90;93.43
39789;BME280;25478;42.626;23.320;2023-06-22T02:51:54;93589.03;;;16.90;93.41
39789;BME280;25478;42.626;23.320;2023-06-22T02:54:21;93584.84;;;16.89;93.50
39789;BME280;25478;42.626;23.320;2023-06-22T02:56:48;93592.44;;;16.91;93.96
39789;BME280;25478;42.626;23.320;2023-06-22T02:59:16;93602.66;;;16.92;94.21
39789;BME280;25478;42.626;23.320;2023-06-22T03:01:43;93600.00;;;16.92;94.78
39789;BME280;25478;42.626;23.320;2023-06-22T03:04:18;93575.44;;;16.81;94.68
39789;BME280;25478;42.626;23.320;2023-06-22T03:06:47;93598.03;;;16.96;95.58
39789;BME280;25478;42.626;23.320;2023-06-22T03:09:19;93568.19;;;16.85;95.74
39789;BME280;25478;42.626;23.320;2023-06-22T03:11:46;93590.41;;;16.98;95.93
39789;BME280;25478;42.626;23.320;2023-06-22T03:14:13;93594.13;;;17.04;95.90
39789;BME280;25478;42.626;23.320;2023-06-22T03:16:39;93596.38;;;17.06;96.38
39789;BME280;25478;42.626;23.320;2023-06-22T03:19:05;93604.31;;;17.09;96.33
39789;BME280;25478;42.626;23.320;2023-06-22T03:21:31;93600.50;;;17.10;96.40
39789;BME280;25478;42.626;23.320;2023-06-22T03:23:59;93621.72;;;17.14;96.46
39789;BME280;25478;42.626;23.320;2023-06-22T03:26:25;93621.34;;;17.15;96.55
39789;BME280;25478;42.626;23.320;2023-06-22T03:28:52;93618.97;;;17.21;96.37
39789;BME280;25478;42.626;23.320;2023-06-22T03:31:17;93620.84;;;17.24;96.62
39789;BME280;25478;42.626;23.320;2023-06-22T03:33:47;93622.28;;;17.29;97.15
39789;BME280;25478;42.626;23.320;2023-06-22T03:36:15;93625.59;;;17.36;97.11
39789;BME280;25478;42.626;23.320;2023-06-22T03:38:48;93622.94;;;17.36;97.08
39789;BME280;25478;42.626;23.320;2023-06-22T03:41:15;93615.53;;;17.24;97.71
39789;BME280;25478;42.626;23.320;2023-06-22T03:43:41;93620.22;;;17.40;97.83
39789;BME280;25478;42.626;23.320;2023-06-22T03:46:07;93607.38;;;17.35;97.75
39789;BME280;25478;42.626;23.320;2023-06-22T03:48:32;93628.81;;;17.51;97.58
39789;BME280;25478;42.626;23.320;2023-06-22T03:51:02;93637.44;;;17.59;97.00
39789;BME280;25478;42.626;23.320;2023-06-22T03:53:28;93624.13;;;17.59;97.15
39789;BME280;25478;42.626;23.320;2023-06-22T03:55:54;93613.91;;;17.54;96.21
39789;BME280;25478;42.626;23.320;2023-06-22T03:58:20;93645.19;;;17.73;95.93
39789;BME280;25478;42.626;23.320;2023-06-22T04:00:47;93638.69;;;17.78;95.99
39789;BME280;25478;42.626;23.320;2023-06-22T04:03:13;93627.97;;;17.81;95.83
39789;BME280;25478;42.626;23.320;2023-06-22T04:05:40;93637.75;;;17.88;95.69
39789;BME280;25478;42.626;23.320;2023-06-22T04:08:06;93624.66;;;17.73;95.84
39789;BME280;25478;42.626;23.320;2023-06-22T04:10:31;93654.53;;;17.85;96.46
39789;BME280;25478;42.626;23.320;2023-06-22T04:12:57;93646.16;;;17.86;96.77
39789;BME280;25478;42.626;23.320;2023-06-22T04:15:22;93646.91;;;17.87;96.89
39789;BME280;25478;42.626;23.320;2023-06-22T04:17:48;93630.84;;;17.90;96.74
39789;BME280;25478;42.626;23.320;2023-06-22T04:20:13;93631.47;;;17.98;96.32
39789;BME280;25478;42.626;23.320;2023-06-22T04:22:39;93626.44;;;18.04;95.92
39789;BME280;25478;42.626;23.320;2023-06-22T04:25:05;93619.09;;;18.11;95.76
39789;BME280;25478;42.626;23.320;2023-06-22T04:27:33;93620.47;;;18.19;95.86
39789;BME280;25478;42.626;23.320;2023-06-22T04:30:06;93616.50;;;18.27;95.89
39789;BME280;25478;42.626;23.320;2023-06-22T04:32:33;93609.47;;;18.37;95.51
39789;BME280;25478;42.626;23.320;2023-06-22T04:34:58;93598.19;;;18.49;94.97
39789;BME280;25478;42.626;23.320;2023-06-22T04:37:26;93604.13;;;18.57;94.78
39789;BME280;25478;42.626;23.320;2023-06-22T04:39:51;93597.56;;;18.62;94.88
39789;BME280;25478;42.626;23.320;2023-06-22T04:42:17;93608.97;;;18.82;94.45
39789;BME280;25478;42.626;23.320;2023-06-22T04:44:43;93617.53;;;18.93;94.17
39789;BME280;25478;42.626;23.320;2023-06-22T04:47:08;93617.72;;;19.02;93.48
39789;BME280;25478;42.626;23.320;2023-06-22T04:49:35;93621.31;;;19.12;93.43
39789;BME280;25478;42.626;23.320;2023-06-22T04:52:09;93601.81;;;19.15;93.24
39789;BME280;25478;42.626;23.320;2023-06-22T04:54:37;93627.44;;;19.29;93.48
39789;BME280;25478;42.626;23.320;2023-06-22T04:57:04;93631.19;;;19.31;92.35
39789;BME280;25478;42.626;23.320;2023-06-22T04:59:33;93632.78;;;19.45;90.83
39789;BME280;25478;42.626;23.320;2023-06-22T05:02:00;93629.53;;;19.54;89.55
39789;BME280;25478;42.626;23.320;2023-06-22T05:04:28;93631.97;;;19.64;87.73
39789;BME280;25478;42.626;23.320;2023-06-22T05:06:57;93629.56;;;19.70;87.44
39789;BME280;25478;42.626;23.320;2023-06-22T05:09:23;93643.41;;;19.98;86.25
39789;BME280;25478;42.626;23.320;2023-06-22T05:11:50;93636.06;;;20.47;84.10
39789;BME280;25478;42.626;23.320;2023-06-22T05:14:18;93642.09;;;21.18;81.41
39789;BME280;25478;42.626;23.320;2023-06-22T05:16:44;93634.78;;;22.08;78.12
39789;BME280;25478;42.626;23.320;2023-06-22T05:19:10;93639.09;;;23.06;73.84
39789;BME280;25478;42.626;23.320;2023-06-22T05:21:36;93633.03;;;24.04;69.27
39789;BME280;25478;42.626;23.320;2023-06-22T05:24:02;93633.69;;;24.72;66.53
39789;BME280;25478;42.626;23.320;2023-06-22T05:26:32;93632.56;;;25.15;63.27
39789;BME280;25478;42.626;23.320;2023-06-22T05:29:00;93637.13;;;25.42;62.23
39789;BME280;25478;42.626;23.320;2023-06-22T05:31:26;93645.59;;;25.59;61.03
39789;BME280;25478;42.626;23.320;2023-06-22T05:33:53;93647.22;;;25.66;60.79
39789;BME280;25478;42.626;23.320;2023-06-22T05:36:19;93644.50;;;25.75;60.94
39789;BME280;25478;42.626;23.320;2023-06-22T05:38:45;93637.56;;;25.83;59.64
39789;BME280;25478;42.626;23.320;2023-06-22T05:41:11;93653.75;;;25.83;59.40
39789;BME280;25478;42.626;23.320;2023-06-22T05:43:37;93655.88;;;25.70;59.37
39789;BME280;25478;42.626;23.320;2023-06-22T05:46:04;93668.59;;;25.69;58.99
39789;BME280;25478;42.626;23.320;2023-06-22T05:48:30;93677.91;;;25.68;59.27
39789;BME280;25478;42.626;23.320;2023-06-22T05:50:56;93673.84;;;25.64;59.24
39789;BME280;25478;42.626;23.320;2023-06-22T05:53:22;93672.81;;;25.61;58.37
39789;BME280;25478;42.626;23.320;2023-06-22T05:55:47;93687.59;;;25.84;57.51
39789;BME280;25478;42.626;23.320;2023-06-22T05:58:13;93671.31;;;26.02;56.93
39789;BME280;25478;42.626;23.320;2023-06-22T06:00:40;93682.94;;;26.42;55.64
39789;BME280;25478;42.626;23.320;2023-06-22T06:03:07;93681.28;;;26.83;54.15
39789;BME280;25478;42.626;23.320;2023-06-22T06:05:33;93675.38;;;27.08;52.40
39789;BME280;25478;42.626;23.320;2023-06-22T06:08:00;93668.28;;;27.11;51.31
39789;BME280;25478;42.626;23.320;2023-06-22T06:10:26;93668.81;;;27.00;51.22
39789;BME280;25478;42.626;23.320;2023-06-22T06:12:52;93667.38;;;26.90;51.23
39789;BME280;25478;42.626;23.320;2023-06-22T06:15:18;93667.38;;;26.75;52.58
39789;BME280;25478;42.626;23.320;2023-06-22T06:17:51;93656.38;;;26.79;52.78
39789;BME280;25478;42.626;23.320;2023-06-22T06:20:20;93659.47;;;26.48;53.65
39789;BME280;25478;42.626;23.320;2023-06-22T06:22:47;93655.06;;;26.59;53.85
39789;BME280;25478;42.626;23.320;2023-06-22T06:25:12;93655.06;;;26.59;54.88
39789;BME280;25478;42.626;23.320;2023-06-22T06:27:47;93648.47;;;26.75;54.41
39789;BME280;25478;42.626;23.320;2023-06-22T06:30:14;93649.44;;;27.02;53.57
39789;BME280;25478;42.626;23.320;2023-06-22T06:32:41;93662.69;;;27.14;53.42
39789;BME280;25478;42.626;23.320;2023-06-22T06:35:08;93643.97;;;27.11;53.42
39789;BME280;25478;42.626;23.320;2023-06-22T06:37:38;93666.31;;;27.26;52.96
39789;BME280;25478;42.626;23.320;2023-06-22T06:40:06;93649.53;;;27.37;52.91
39789;BME280;25478;42.626;23.320;2023-06-22T06:42:39;93661.63;;;27.71;51.96
39789;BME280;25478;42.626;23.320;2023-06-22T06:45:16;93640.56;;;27.95;50.30
39789;BME280;25478;42.626;23.320;2023-06-22T06:47:41;93640.22;;;27.88;50.24
39789;BME280;25478;42.626;23.320;2023-06-22T06:50:07;93650.31;;;27.87;50.32
39789;BME280;25478;42.626;23.320;2023-06-22T06:52:33;93645.75;;;27.79;50.25
39789;BME280;25478;42.626;23.320;2023-06-22T06:54:59;93646.16;;;27.71;51.11
39789;BME280;25478;42.626;23.320;2023-06-22T06:57:25;93637.91;;;27.66;51.17
39789;BME280;25478;42.626;23.320;2023-06-22T06:59:57;93637.09;;;27.60;51.86
39789;BME280;25478;42.626;23.320;2023-06-22T07:02:26;93635.16;;;27.45;52.77
39789;BME280;25478;42.626;23.320;2023-06-22T07:04:53;93627.16;;;27.36;52.25
39789;BME280;25478;42.626;23.320;2023-06-22T07:07:20;93624.72;;;27.53;52.42
39789;BME280;25478;42.626;23.320;2023-06-22T07:09:46;93631.63;;;27.89;52.42
39789;BME280;25478;42.626;23.320;2023-06-22T07:12:11;93630.44;;;28.11;52.26
39789;BME280;25478;42.626;23.320;2023-06-22T07:14:37;93634.28;;;28.24;51.80
39789;BME280;25478;42.626;23.320;2023-06-22T07:17:03;93638.72;;;28.42;50.46
39789;BME280;25478;42.626;23.320;2023-06-22T07:19:28;93643.13;;;28.40;49.11
39789;BME280;25478;42.626;23.320;2023-06-22T07:21:54;93650.44;;;28.34;50.72
39789;BME280;25478;42.626;23.320;2023-06-22T07:24:20;93643.91;;;28.25;49.42
39789;BME280;25478;42.626;23.320;2023-06-22T07:26:47;93643.03;;;28.14;49.88
39789;BME280;25478;42.626;23.320;2023-06-22T07:29:16;93630.16;;;27.88;50.27
39789;BME280;25478;42.626;23.320;2023-06-22T07:31:42;93647.06;;;28.03;49.75
39789;BME280;25478;42.626;23.320;2023-06-22T07:34:07;93651.28;;;28.04;49.76
39789;BME280;25478;42.626;23.320;2023-06-22T07:36:33;93642.75;;;28.12;50.41
39789;BME280;25478;42.626;23.320;2023-06-22T07:39:04;93643.56;;;28.18;50.82
39789;BME280;25478;42.626;23.320;2023-06-22T07:41:30;93651.94;;;28.35;49.84
39789;BME280;25478;42.626;23.320;2023-06-22T07:43:56;93650.75;;;28.41;49.91
39789;BME280;25478;42.626;23.320;2023-06-22T07:46:22;93637.09;;;28.30;48.76
39789;BME280;25478;42.626;23.320;2023-06-22T07:48:47;93658.00;;;28.29;48.66
39789;BME280;25478;42.626;23.320;2023-06-22T07:51:13;93637.94;;;28.21;48.58
39789;BME280;25478;42.626;23.320;2023-06-22T07:53:40;93653.47;;;28.41;48.60
39789;BME280;25478;42.626;23.320;2023-06-22T07:56:06;93656.88;;;28.36;48.18
39789;BME280;25478;42.626;23.320;2023-06-22T07:58:34;93653.59;;;28.32;47.60
39789;BME280;25478;42.626;23.320;2023-06-22T08:01:00;93653.16;;;28.34;47.62
39789;BME280;25478;42.626;23.320;2023-06-22T08:03:25;93654.75;;;28.46;47.85
39789;BME280;25478;42.626;23.320;2023-06-22T08:05:51;93654.94;;;28.63;47.52
39789;BME280;25478;42.626;23.320;2023-06-22T08:08:16;93634.75;;;28.64;47.97
39789;BME280;25478;42.626;23.320;2023-06-22T08:10:42;93622.94;;;28.61;48.93
39789;BME280;25478;42.626;23.320;2023-06-22T08:13:10;93634.84;;;28.69;49.00
39789;BME280;25478;42.626;23.320;2023-06-22T08:15:35;93630.25;;;28.55;49.32
39789;BME280;25478;42.626;23.320;2023-06-22T08:18:01;93640.84;;;28.58;49.73
39789;BME280;25478;42.626;23.320;2023-06-22T08:20:26;93633.50;;;28.59;48.68
39789;BME280;25478;42.626;23.320;2023-06-22T08:22:53;93641.97;;;28.46;48.25
39789;BME280;25478;42.626;23.320;2023-06-22T08:25:19;93634.38;;;28.30;49.33
39789;BME280;25478;42.626;23.320;2023-06-22T08:27:45;93632.53;;;28.21;49.87
39789;BME280;25478;42.626;23.320;2023-06-22T08:30:12;93630.47;;;28.31;48.92
39789;BME280;25478;42.626;23.320;2023-06-22T08:32:38;93626.72;;;28.49;48.21
39789;BME280;25478;42.626;23.320;2023-06-22T08:35:04;93621.84;;;28.53;48.34
39789;BME280;25478;42.626;23.320;2023-06-22T08:37:31;93627.13;;;28.62;47.76
39789;BME280;25478;42.626;23.320;2023-06-22T08:40:01;93628.38;;;28.67;47.78
39789;BME280;25478;42.626;23.320;2023-06-22T08:42:27;93631.06;;;28.61;47.63
39789;BME280;25478;42.626;23.320;2023-06-22T08:44:52;93636.28;;;28.44;47.37
39789;BME280;25478;42.626;23.320;2023-06-22T08:47:19;93638.50;;;28.25;48.61
39789;BME280;25478;42.626;23.320;2023-06-22T08:49:45;93639.78;;;28.10;48.73
39789;BME280;25478;42.626;23.320;2023-06-22T08:52:11;93642.53;;;27.95;50.39
39789;BME280;25478;42.626;23.320;2023-06-22T08:54:36;93644.16;;;27.87;51.49
39789;BME280;25478;42.626;23.320;2023-06-22T08:57:02;93636.28;;;27.68;51.68
39789;BME280;25478;42.626;23.320;2023-06-22T08:59:27;93624.50;;;27.57;51.33
39789;BME280;25478;42.626;23.320;2023-06-22T09:01:53;93623.03;;;27.56;52.37
39789;BME280;25478;42.626;23.320;2023-06-22T09:04:19;93626.19;;;27.54;53.17
39789;BME280;25478;42.626;23.320;2023-06-22T09:06:48;93614.91;;;27.56;53.46
39789;BME280;25478;42.626;23.320;2023-06-22T09:09:13;93617.97;;;27.63;53.74
39789;BME280;25478;42.626;23.320;2023-06-22T09:11:40;93604.31;;;27.52;52.12
39789;BME280;25478;42.626;23.320;2023-06-22T09:14:05;93614.09;;;27.49;52.23
39789;BME280;25478;42.626;23.320;2023-06-22T09:16:31;93613.34;;;27.49;53.00
39789;BME280;25478;42.626;23.320;2023-06-22T09:18:57;93617.81;;;27.52;52.36
39789;BME280;25478;42.626;23.320;2023-06-22T09:21:23;93622.00;;;27.53;52.34
39789;BME280;25478;42.626;23.320;2023-06-22T09:23:48;93622.09;;;27.59;51.81
39789;BME280;25478;42.626;23.320;2023-06-22T09:26:19;93617.97;;;27.63;52.06
39789;BME280;25478;42.626;23.320;2023-06-22T09:28:45;93618.63;;;27.73;52.30
39789;BME280;25478;42.626;23.320;2023-06-22T09:31:11;93615.91;;;27.73;51.09
39789;BME280;25478;42.626;23.320;2023-06-22T09:33:37;93626.63;;;27.82;50.09
39789;BME280;25478;42.626;23.320;2023-06-22T09:36:06;93624.84;;;27.79;48.44
39789;BME280;25478;42.626;23.320;2023-06-22T09:38:38;93637.66;;;27.79;48.99
39789;BME280;25478;42.626;23.320;2023-06-22T09:41:04;93614.25;;;27.75;49.77
39789;BME280;25478;42.626;23.320;2023-06-22T09:43:31;93623.13;;;27.96;49.34
39789;BME280;25478;42.626;23.320;2023-06-22T09:45:57;93618.94;;;27.95;49.15
39789;BME280;25478;42.626;23.320;2023-06-22T09:48:23;93624.69;;;28.03;49.50
39789;BME280;25478;42.626;23.320;2023-06-22T09:50:49;93626.44;;;28.06;49.09
39789;BME280;25478;42.626;23.320;2023-06-22T09:53:14;93611.63;;;28.01;49.05
39789;BME280;25478;42.626;23.320;2023-06-22T09:55:40;93620.88;;;28.15;49.29
39789;BME280;25478;42.626;23.320;2023-06-22T09:58:05;93625.53;;;28.29;48.94
39789;BME280;25478;42.626;23.320;2023-06-22T10:00:31;93617.81;;;28.43;46.96
39789;BME280;25478;42.626;23.320;2023-06-22T10:02:57;93613.47;;;28.51;46.07
39789;BME280;25478;42.626;23.320;2023-06-22T10:05:22;93614.41;;;28.48;44.76
39789;BME280;25478;42.626;23.320;2023-06-22T10:07:48;93617.75;;;28.37;43.37
39789;BME280;25478;42.626;23.320;2023-06-22T10:10:14;93615.16;;;28.28;43.16
39789;BME280;25478;42.626;23.320;2023-06-22T10:12:47;93611.16;;;28.23;44.06
39789;BME280;25478;42.626;23.320;2023-06-22T10:15:14;93606.75;;;28.26;43.64
39789;BME280;25478;42.626;23.320;2023-06-22T10:17:40;93599.84;;;28.25;42.78
39789;BME280;25478;42.626;23.320;2023-06-22T10:20:06;93613.56;;;28.36;42.88
39789;BME280;25478;42.626;23.320;2023-06-22T10:22:38;93603.78;;;28.44;41.01
39789;BME280;25478;42.626;23.320;2023-06-22T10:25:03;93602.03;;;28.41;40.98
39789;BME280;25478;42.626;23.320;2023-06-22T10:27:29;93596.59;;;28.41;42.43
39789;BME280;25478;42.626;23.320;2023-06-22T10:29:54;93600.94;;;28.53;41.36
39789;BME280;25478;42.626;23.320;2023-06-22T10:32:20;93609.50;;;28.72;41.80
39789;BME280;25478;42.626;23.320;2023-06-22T10:34:46;93601.19;;;28.81;41.17
39789;BME280;25478;42.626;23.320;2023-06-22T10:37:11;93605.75;;;28.90;40.07
39789;BME280;25478;42.626;23.320;2023-06-22T10:39:36;93553.31;;;28.67;39.52
39789;BME280;25478;42.626;23.320;2023-06-22T10:42:02;93592.09;;;29.05;39.22
39789;BME280;25478;42.626;23.320;2023-06-22T10:44:28;93593.38;;;29.09;39.44
39789;BME280;25478;42.626;23.320;2023-06-22T10:46:53;93587.97;;;29.15;40.42
39789;BME280;25478;42.626;23.320;2023-06-22T10:49:18;93590.50;;;29.24;40.85
39789;BME280;25478;42.626;23.320;2023-06-22T10:51:44;93585.38;;;29.26;41.34
39789;BME280;25478;42.626;23.320;2023-06-22T10:54:09;93572.69;;;29.12;40.25
39789;BME280;25478;42.626;23.320;2023-06-22T10:56:35;93592.31;;;29.01;40.57
39789;BME280;25478;42.626;23.320;2023-06-22T10:59:00;93591.34;;;28.78;41.00
39789;BME280;25478;42.626;23.320;2023-06-22T11:01:27;93590.28;;;28.70;41.75
39789;BME280;25478;42.626;23.320;2023-06-22T11:03:53;93586.28;;;28.66;40.87
39789;BME280;25478;42.626;23.320;2023-06-22T11:06:18;93593.72;;;28.71;41.03
39789;BME280;25478;42.626;23.320;2023-06-22T11:08:44;93585.16;;;28.78;41.42
39789;BME280;25478;42.626;23.320;2023-06-22T11:11:10;93585.25;;;28.89;41.07
39789;BME280;25478;42.626;23.320;2023-06-22T11:13:36;93586.13;;;29.01;39.75
39789;BME280;25478;42.626;23.320;2023-06-22T11:16:01;93580.25;;;29.02;39.38
39789;BME280;25478;42.626;23.320;2023-06-22T11:18:27;93581.47;;;29.01;39.32
39789;BME280;25478;42.626;23.320;2023-06-22T11:20:52;93578.53;;;29.05;39.46
39789;BME280;25478;42.626;23.320;2023-06-22T11:23:18;93576.63;;;29.11;39.48
39789;BME280;25478;42.626;23.320;2023-06-22T11:25:44;93573.19;;;29.16;39.63
39789;BME280;25478;42.626;23.320;2023-06-22T11:28:11;93564.84;;;29.20;39.37
39789;BME280;25478;42.626;23.320;2023-06-22T11:30:37;93576.75;;;29.33;39.79
39789;BME280;25478;42.626;23.320;2023-06-22T11:33:02;93571.91;;;29.43;39.19
39789;BME280;25478;42.626;23.320;2023-06-22T11:35:28;93572.97;;;29.51;37.98
39789;BME280;25478;42.626;23.320;2023-06-22T11:37:53;93562.56;;;29.44;38.01
39789;BME280;25478;42.626;23.320;2023-06-22T11:40:19;93563.25;;;29.39;38.39
39789;BME280;25478;42.626;23.320;2023-06-22T11:42:44;93559.75;;;29.33;39.58
39789;BME280;25478;42.626;23.320;2023-06-22T11:45:10;93572.88;;;29.40;39.58
39789;BME280;25478;42.626;23.320;2023-06-22T11:47:35;93566.88;;;29.30;39.34
39789;BME280;25478;42.626;23.320;2023-06-22T11:50:02;93548.78;;;29.10;38.85
39789;BME280;25478;42.626;23.320;2023-06-22T11:52:28;93553.88;;;29.03;39.01
39789;BME280;25478;42.626;23.320;2023-06-22T11:54:53;93549.63;;;28.96;40.04
39789;BME280;25478;42.626;23.320;2023-06-22T11:57:19;93549.53;;;28.85;40.01
39789;BME280;25478;42.626;23.320;2023-06-22T11:59:44;93540.13;;;28.80;41.16
39789;BME280;25478;42.626;23.320;2023-06-22T12:02:10;93546.75;;;28.79;41.02
39789;BME280;25478;42.626;23.320;2023-06-22T12:04:35;93551.19;;;28.77;41.31
39789;BME280;25478;42.626;23.320;2023-06-22T12:07:01;93559.03;;;28.75;40.82
39789;BME280;25478;42.626;23.320;2023-06-22T12:09:27;93556.78;;;28.73;40.33
39789;BME280;25478;42.626;23.320;2023-06-22T12:11:53;93546.19;;;28.70;41.00
39789;BME280;25478;42.626;23.320;2023-06-22T12:14:18;93543.25;;;28.73;43.01
39789;BME280;25478;42.626;23.320;2023-06-22T12:16:44;93567.75;;;28.84;42.54
39789;BME280;25478;42.626;23.320;2023-06-22T12:19:10;93562.00;;;28.77;42.19
39789;BME280;25478;42.626;23.320;2023-06-22T12:21:37;93553.31;;;28.67;42.66
39789;BME280;25478;42.626;23.320;2023-06-22T12:24:02;93560.16;;;28.63;43.74
39789;BME280;25478;42.626;23.320;2023-06-22T12:26:28;93541.19;;;28.37;44.14
39789;BME280;25478;42.626;23.320;2023-06-22T12:28:53;93555.03;;;28.24;44.42
39789;BME280;25478;42.626;23.320;2023-06-22T12:31:20;93558.78;;;28.06;45.38
39789;BME280;25478;42.626;23.320;2023-06-22T12:33:46;93542.97;;;27.79;47.19
39789;BME280;25478;42.626;23.320;2023-06-22T12:36:11;93562.03;;;27.69;47.31
39789;BME280;25478;42.626;23.320;2023-06-22T12:38:37;93573.25;;;27.47;47.53
39789;BME280;25478;42.626;23.320;2023-06-22T12:41:02;93582.06;;;27.28;49.81
39789;BME280;25478;42.626;23.320;2023-06-22T12:43:28;93591.09;;;26.95;52.08
39789;BME280;25478;42.626;23.320;2023-06-22T12:45:53;93582.47;;;26.37;58.21
39789;BME280;25478;42.626;23.320;2023-06-22T12:48:19;93578.22;;;25.83;61.66
39789;BME280;25478;42.626;23.320;2023-06-22T12:50:44;93582.50;;;25.33;67.26
39789;BME280;25478;42.626;23.320;2023-06-22T12:53:10;93592.19;;;24.88;70.41